Time;durP1;ratioP1;P1;durP2;ratioP2;P2;SDS_P1;SDS_P2;PMS_P1;PMS_P2;Temp;Humidity;BMP_temperature;BMP_pressure;BME280_temperature;BME280_humidity;BME280_pressure;Samples;Min_cycle;Max_cycle;Signal;HPM_P1;HPM_P2
2022/11/22 00:00:56;;;;;;;18.23;6.60;;;9.20;99.90;;;;;;5044133;28;20501;-60
2022/11/22 00:03:23;;;;;;;20.20;7.07;;;9.20;99.90;;;;;;5053524;28;20752;-60
2022/11/22 00:05:50;;;;;;;18.37;7.07;;;9.20;99.90;;;;;;5040703;28;20479;-60
2022/11/22 00:08:17;;;;;;;8.87;4.53;;;9.30;99.90;;;;;;5049259;28;20470;-61
2022/11/22 00:10:43;;;;;;;29.60;10.60;;;9.40;99.90;;;;;;5046140;28;20479;-60
2022/11/22 00:13:10;;;;;;;22.97;7.43;;;9.40;99.90;;;;;;5047413;28;20763;-61
2022/11/22 00:15:37;;;;;;;26.17;9.60;;;;;;;;;;5048346;28;20947;-60
2022/11/22 00:18:05;;;;;;;20.63;6.20;;;9.30;99.90;;;;;;5049962;28;21065;-60
2022/11/22 00:20:32;;;;;;;23.43;7.00;;;9.20;99.90;;;;;;5051657;28;20663;-60
2022/11/22 00:22:59;;;;;;;24.30;8.43;;;9.20;99.90;;;;;;5053090;28;20479;-61
2022/11/22 00:25:26;;;;;;;24.53;9.33;;;9.20;99.90;;;;;;5044895;28;20781;-61
2022/11/22 00:27:53;;;;;;;16.60;7.13;;;9.20;99.90;;;;;;5051524;28;21086;-60
2022/11/22 00:30:20;;;;;;;21.60;7.60;;;9.00;99.90;;;;;;5051855;28;20479;-61
2022/11/22 00:32:47;;;;;;;31.80;10.17;;;9.20;99.90;;;;;;5054234;28;20495;-61
2022/11/22 00:35:15;;;;;;;16.77;6.70;;;9.20;99.90;;;;;;5046761;28;21038;-61
2022/11/22 00:37:42;;;;;;;43.97;12.30;;;9.10;99.90;;;;;;5046796;28;20480;-61
2022/11/22 00:40:10;;;;;;;17.20;6.97;;;9.20;99.90;;;;;;5040238;28;20495;-60
2022/11/22 00:42:36;;;;;;;25.07;9.47;;;9.10;99.90;;;;;;5047125;28;20476;-60
2022/11/22 00:45:03;;;;;;;23.57;6.77;;;9.20;99.90;;;;;;5048654;28;20480;-60
2022/11/22 00:47:30;;;;;;;19.40;6.77;;;9.20;99.90;;;;;;5049111;28;21484;-60
2022/11/22 00:49:57;;;;;;;22.13;8.70;;;9.10;99.90;;;;;;5046833;28;20803;-60
2022/11/22 00:52:25;;;;;;;20.53;7.30;;;9.20;99.90;;;;;;5049640;28;20877;-60
2022/11/22 00:54:52;;;;;;;19.13;6.33;;;9.10;99.90;;;;;;5032781;28;20490;-61
2022/11/22 00:57:18;;;;;;;22.73;7.80;;;9.20;99.90;;;;;;5056135;28;20475;-61
2022/11/22 00:59:45;;;;;;;34.07;10.23;;;9.20;99.90;;;;;;5044804;28;20894;-61
2022/11/22 01:02:12;;;;;;;17.67;6.33;;;9.10;99.90;;;;;;5050637;28;20505;-60
2022/11/22 01:04:39;;;;;;;40.73;11.90;;;9.20;99.90;;;;;;5045306;28;20887;-61
2022/11/22 01:07:05;;;;;;;18.10;5.20;;;9.20;99.90;;;;;;5042778;28;20482;-61
2022/11/22 01:09:34;;;;;;;26.50;9.57;;;9.20;99.90;;;;;;5050340;28;20542;-60
2022/11/22 01:12:00;;;;;;;18.87;5.90;;;9.20;99.90;;;;;;5051993;28;20483;-61
2022/11/22 01:14:27;;;;;;;27.67;7.30;;;9.20;99.90;;;;;;5044572;28;20910;-61
2022/11/22 01:16:54;;;;;;;27.57;8.90;;;9.30;99.90;;;;;;5046210;28;20487;-60
2022/11/22 01:19:20;;;;;;;20.27;6.80;;;9.30;99.90;;;;;;5050860;28;20491;-60
2022/11/22 01:21:47;;;;;;;26.07;9.50;;;9.30;99.90;;;;;;5041980;28;20487;-60
2022/11/22 01:24:14;;;;;;;22.27;7.07;;;9.20;99.90;;;;;;5063243;28;20475;-60
2022/11/22 01:26:42;;;;;;;40.53;11.50;;;9.20;99.90;;;;;;5032886;28;20487;-61
2022/11/22 01:29:08;;;;;;;32.03;9.80;;;9.20;99.90;;;;;;5050521;28;20484;-61
2022/11/22 01:31:35;;;;;;;27.53;8.70;;;9.60;99.90;;;;;;5050245;28;20476;-61
2022/11/22 01:34:05;;;;;;;13.10;5.90;;;9.20;99.90;;;;;;5038802;28;20728;-61
2022/11/22 01:36:32;;;;;;;42.37;12.57;;;9.20;99.90;;;;;;5034894;28;20480;-61
2022/11/22 01:38:58;;;;;;;28.57;8.40;;;9.20;99.90;;;;;;5021916;28;20492;-61
2022/11/22 01:41:25;;;;;;;32.97;8.00;;;9.00;99.90;;;;;;5029711;28;20480;-61
2022/11/22 01:43:53;;;;;;;21.40;6.50;;;9.10;99.90;;;;;;5031040;28;20956;-60
2022/11/22 01:46:29;;;;;;;28.47;6.87;;;9.10;99.90;;;;;;5029758;28;20797;-60
2022/11/22 01:49:02;;;;;;;21.50;6.13;;;9.10;99.90;;;;;;5035668;28;20495;-60
2022/11/22 01:51:36;;;;;;;26.83;8.00;;;9.00;99.90;;;;;;5035659;28;20484;-61
2022/11/22 01:54:08;;;;;;;33.40;7.17;;;9.10;99.90;;;;;;5035863;28;20558;-61
2022/11/22 01:56:38;;;;;;;33.47;7.77;;;9.00;99.90;;;;;;5032626;28;20842;-60
2022/11/22 01:59:12;;;;;;;23.63;6.10;;;9.10;99.90;;;;;;5035989;28;20489;-60
2022/11/22 02:01:39;;;;;;;25.53;10.83;;;9.00;99.90;;;;;;5035673;28;20567;-61
2022/11/22 02:04:08;;;;;;;18.20;7.10;;;9.00;99.90;;;;;;5034375;28;20965;-60
2022/11/22 02:06:42;;;;;;;29.43;9.37;;;9.00;99.90;;;;;;5032350;28;20484;-61
2022/11/22 02:09:12;;;;;;;20.60;4.97;;;8.90;99.90;;;;;;5038611;28;20483;-61
2022/11/22 02:11:44;;;;;;;40.43;12.00;;;8.90;99.90;;;;;;5033513;28;20476;-61
2022/11/22 02:14:13;;;;;;;27.87;6.17;;;9.00;99.90;;;;;;5030969;28;20500;-61
2022/11/22 02:16:41;;;;;;;34.83;11.10;;;8.80;99.90;;;;;;5033685;28;20484;-61
2022/11/22 02:19:13;;;;;;;18.50;7.70;;;8.80;99.90;;;;;;5034222;28;21017;-61
2022/11/22 02:21:40;;;;;;;36.23;11.07;;;8.80;99.90;;;;;;5033567;28;20883;-61
2022/11/22 02:24:16;;;;;;;14.33;5.70;;;8.80;99.90;;;;;;5033950;28;20807;-60
2022/11/22 02:26:45;;;;;;;34.23;10.30;;;8.80;99.90;;;;;;5034890;28;20491;-61
2022/11/22 02:29:12;;;;;;;31.87;3.97;;;8.80;99.90;;;;;;5039254;28;20483;-61
2022/11/22 02:31:42;;;;;;;28.47;10.60;;;8.70;99.90;;;;;;5035553;28;20554;-61
2022/11/22 02:34:09;;;;;;;24.27;6.23;;;8.80;99.90;;;;;;5037104;28;20560;-61
2022/11/22 02:36:41;;;;;;;26.57;7.87;;;8.80;99.90;;;;;;5031446;28;20530;-61
2022/11/22 02:39:10;;;;;;;21.57;4.43;;;8.70;99.90;;;;;;5034987;28;20489;-61
2022/11/22 02:41:38;;;;;;;25.20;6.87;;;8.80;99.90;;;;;;5031616;28;20475;-61
2022/11/22 02:44:07;;;;;;;17.43;5.43;;;8.70;99.90;;;;;;5034282;28;20499;-61
2022/11/22 02:46:34;;;;;;;21.13;6.73;;;8.60;99.90;;;;;;5033300;28;20483;-60
2022/11/22 02:49:00;;;;;;;32.43;8.20;;;8.60;99.90;;;;;;5030323;28;20482;-61
2022/11/22 02:51:27;;;;;;;17.10;5.57;;;8.60;99.90;;;;;;5024976;28;20468;-61
2022/11/22 02:53:55;;;;;;;16.93;5.83;;;8.60;99.90;;;;;;5035508;28;20515;-61
2022/11/22 02:56:22;;;;;;;41.60;7.13;;;8.70;99.90;;;;;;5033466;28;20484;-61
2022/11/22 02:58:49;;;;;;;33.57;10.23;;;8.70;99.90;;;;;;5032611;28;20813;-61
2022/11/22 03:01:17;;;;;;;19.80;6.23;;;8.70;99.90;;;;;;5031785;28;20492;-60
2022/11/22 03:03:44;;;;;;;35.70;9.30;;;8.70;99.90;;;;;;5033420;28;20484;-61
2022/11/22 03:06:10;;;;;;;22.47;5.97;;;8.70;99.90;;;;;;5033158;28;20695;-60
2022/11/22 03:08:37;;;;;;;40.67;10.00;;;8.60;99.90;;;;;;5035128;28;21180;-61
2022/11/22 03:11:04;;;;;;;39.37;7.17;;;8.60;99.90;;;;;;5035749;28;20476;-61
2022/11/22 03:13:30;;;;;;;13.97;5.47;;;8.70;99.90;;;;;;5035600;28;20476;-61
2022/11/22 03:15:57;;;;;;;19.57;6.70;;;8.60;99.90;;;;;;5027747;28;20483;-61
2022/11/22 03:18:25;;;;;;;14.73;5.73;;;9.30;99.90;;;;;;5039597;28;20484;-61
2022/11/22 03:20:52;;;;;;;21.27;7.33;;;8.50;99.90;;;;;;5037383;28;20480;-61
2022/11/22 03:23:19;;;;;;;21.13;6.30;;;8.50;99.90;;;;;;5036945;28;20479;-61
2022/11/22 03:25:45;;;;;;;25.10;8.20;;;8.40;99.90;;;;;;5042253;28;20872;-61
2022/11/22 03:28:12;;;;;;;21.13;5.90;;;8.30;99.90;;;;;;5039451;28;20476;-61
2022/11/22 03:30:42;;;;;;;43.07;11.23;;;8.40;99.90;;;;;;5037839;28;20817;-61
2022/11/22 03:33:09;;;;;;;15.93;5.33;;;8.40;99.90;;;;;;5038700;28;20480;-61
2022/11/22 03:35:37;;;;;;;34.57;9.83;;;8.30;99.90;;;;;;5042062;28;20491;-61
2022/11/22 03:38:05;;;;;;;20.13;6.20;;;8.40;99.90;;;;;;5033996;28;20491;-61
2022/11/22 03:40:32;;;;;;;23.40;6.03;;;8.30;99.90;;;;;;5039048;28;21279;-61
2022/11/22 03:43:00;;;;;;;23.20;7.33;;;8.60;99.90;;;;;;5033884;28;20499;-60
2022/11/22 03:45:28;;;;;;;32.03;10.20;;;8.40;99.90;;;;;;5035848;28;20974;-61
2022/11/22 03:47:56;;;;;;;34.37;8.13;;;8.30;99.90;;;;;;5045249;28;20510;-61
2022/11/22 03:50:23;;;;;;;35.63;7.43;;;8.40;99.90;;;;;;5040009;28;20915;-61
2022/11/22 03:52:51;;;;;;;25.30;7.97;;;8.50;99.90;;;;;;5040632;28;20483;-59
2022/11/22 03:55:18;;;;;;;23.23;6.30;;;8.50;99.90;;;;;;5041909;28;20487;-60
2022/11/22 03:57:45;;;;;;;40.27;12.63;;;8.40;99.90;;;;;;5032686;28;20855;-61
2022/11/22 04:00:13;;;;;;;18.70;4.90;;;8.40;99.90;;;;;;5037950;28;20488;-61
2022/11/22 04:02:40;;;;;;;45.63;10.63;;;8.30;99.90;;;;;;5022203;28;20499;-61
2022/11/22 04:05:07;;;;;;;24.87;8.00;;;8.20;99.90;;;;;;5042365;28;20486;-60
2022/11/22 04:07:34;;;;;;;33.53;7.60;;;8.30;99.90;;;;;;5038427;28;21004;-61
2022/11/22 04:10:02;;;;;;;27.33;5.57;;;8.30;99.90;;;;;;5037879;28;20841;-60
2022/11/22 04:12:30;;;;;;;21.23;6.60;;;8.20;99.90;;;;;;5032124;28;21061;-60
2022/11/22 04:15:07;;;;;;;23.93;6.90;;;8.10;99.90;;;;;;5040214;28;20988;-60
2022/11/22 04:17:40;;;;;;;27.90;9.87;;;8.10;99.90;;;;;;5019118;28;20479;-59
2022/11/22 04:22:57;;;;;;;22.97;6.70;;;8.10;99.90;;;;;;5037699;28;20525;-60
2022/11/22 04:25:24;;;;;;;32.40;10.73;;;8.00;99.90;;;;;;5034693;28;20585;-60
2022/11/22 04:27:51;;;;;;;38.40;8.93;;;8.10;99.90;;;;;;5038319;28;20517;-60
2022/11/22 04:30:18;;;;;;;17.60;6.00;;;8.10;99.90;;;;;;5037757;28;20824;-60
2022/11/22 04:32:46;;;;;;;47.83;10.23;;;8.10;99.90;;;;;;5037809;28;21358;-60
2022/11/22 04:35:14;;;;;;;18.30;5.07;;;8.10;99.90;;;;;;5036949;28;20483;-60
2022/11/22 04:37:42;;;;;;;24.70;8.03;;;8.10;99.90;;;;;;5027882;28;20480;-60
2022/11/22 04:40:10;;;;;;;20.57;5.63;;;8.20;99.90;;;;;;5048725;28;20670;-61
2022/11/22 04:45:23;;;;;;;27.63;9.17;;;8.10;99.90;;;;;;5037233;28;20573;-60
2022/11/22 04:48:01;;;;;;;28.73;7.40;;;8.20;99.90;;;;;;5035647;28;21397;-60
2022/11/22 04:53:14;;;;;;;20.33;6.30;;;8.10;99.90;;;;;;5027611;28;20487;-61
2022/11/22 04:55:43;;;;;;;42.27;11.00;;;8.10;99.90;;;;;;5034420;28;20486;-61
2022/11/22 04:58:11;;;;;;;57.50;9.07;;;7.90;99.90;;;;;;5037678;28;20488;-61
2022/11/22 05:00:38;;;;;;;33.57;9.93;;;7.90;99.90;;;;;;5035683;28;20536;-61
2022/11/22 05:03:06;;;;;;;25.17;6.20;;;7.80;99.90;;;;;;5034483;28;20488;-61
2022/11/22 05:05:35;;;;;;;37.43;8.70;;;7.80;99.90;;;;;;5031176;28;20512;-61
2022/11/22 05:08:02;;;;;;;20.33;6.70;;;7.80;99.90;;;;;;5035951;28;20483;-61
2022/11/22 05:10:55;;;;;;;18.17;6.70;;;7.60;99.90;;;;;;5035362;28;20476;-61
2022/11/22 05:13:17;;;;;;;19.20;7.03;;;7.80;99.90;;;;;;5027442;28;21074;-60
2022/11/22 05:15:44;;;;;;;36.37;11.50;;;7.70;99.90;;;;;;5035007;28;20481;-61
2022/11/22 05:18:11;;;;;;;22.57;6.50;;;7.70;99.90;;;;;;5037086;28;20869;-61
2022/11/22 05:20:37;;;;;;;22.43;7.87;;;7.70;99.90;;;;;;5033742;28;20487;-61
2022/11/22 05:25:49;;;;;;;27.97;9.20;;;7.60;99.90;;;;;;5032970;28;20807;-62
2022/11/22 05:28:17;;;;;;;20.77;6.20;;;7.70;99.90;;;;;;5033172;28;21023;-62
2022/11/22 05:30:43;;;;;;;41.33;9.33;;;7.70;99.90;;;;;;5029376;28;20467;-62
2022/11/22 05:33:10;;;;;;;13.73;5.30;;;7.80;99.90;;;;;;5042843;28;20999;-62
2022/11/22 05:35:37;;;;;;;32.33;9.33;;;7.70;99.90;;;;;;5036030;28;20797;-62
2022/11/22 05:38:04;;;;;;;25.73;5.80;;;7.80;99.90;;;;;;5037166;28;20488;-61
2022/11/22 05:40:30;;;;;;;29.53;6.43;;;7.70;99.90;;;;;;5037211;28;20831;-62
2022/11/22 05:42:57;;;;;;;37.17;9.43;;;7.70;99.90;;;;;;5039432;28;20483;-61
2022/11/22 05:45:26;;;;;;;36.33;9.63;;;7.60;99.90;;;;;;5034170;28;20579;-61
2022/11/22 05:47:52;;;;;;;17.50;5.30;;;7.60;99.90;;;;;;5036359;28;20495;-62
2022/11/22 05:50:19;;;;;;;22.80;6.83;;;7.70;99.90;;;;;;5023625;28;20488;-61
2022/11/22 05:52:46;;;;;;;59.97;11.30;;;7.80;99.90;;;;;;5035165;28;20484;-62
2022/11/22 05:55:13;;;;;;;24.97;6.80;;;7.80;99.90;;;;;;5036967;28;20853;-62
2022/11/22 05:57:39;;;;;;;50.23;10.87;;;7.90;99.90;;;;;;5034648;28;20479;-62
2022/11/22 06:00:07;;;;;;;24.37;6.73;;;7.80;99.90;;;;;;5034243;28;20479;-62
2022/11/22 06:02:35;;;;;;;27.33;7.83;;;7.80;99.90;;;;;;5037254;28;20476;-61
2022/11/22 06:05:02;;;;;;;24.10;6.80;;;7.70;99.90;;;;;;5037183;28;20502;-61
2022/11/22 06:07:29;;;;;;;37.67;8.37;;;7.80;99.90;;;;;;5035399;28;20491;-61
2022/11/22 06:09:56;;;;;;;23.70;6.90;;;7.70;99.90;;;;;;5032289;28;20476;-62
2022/11/22 06:12:23;;;;;;;31.07;8.30;;;7.60;99.90;;;;;;5025504;28;20804;-61
2022/11/22 06:14:49;;;;;;;44.27;8.40;;;7.60;99.90;;;;;;5048973;28;20846;-61
2022/11/22 06:17:16;;;;;;;17.90;5.97;;;7.50;99.90;;;;;;5018727;28;20488;-61
2022/11/22 06:19:44;;;;;;;43.27;12.97;;;7.60;99.90;;;;;;5040690;28;20476;-61
2022/11/22 06:22:11;;;;;;;26.10;6.20;;;7.60;99.90;;;;;;5036888;28;20919;-61
2022/11/22 06:24:37;;;;;;;24.00;7.73;;;7.60;99.90;;;;;;5020698;28;20491;-61
2022/11/22 06:27:04;;;;;;;29.87;7.63;;;7.70;99.90;;;;;;5034459;28;20845;-61
2022/11/22 06:29:31;;;;;;;44.27;7.63;;;7.60;99.90;;;;;;5038197;28;20487;-61
2022/11/22 06:31:57;;;;;;;30.63;8.90;;;7.50;99.90;;;;;;5037473;28;21037;-61
2022/11/22 06:34:24;;;;;;;18.13;6.50;;;7.40;99.90;;;;;;5043390;28;20947;-61
2022/11/22 06:36:52;;;;;;;33.10;10.03;;;7.40;99.90;;;;;;5017775;28;20488;-61
2022/11/22 06:39:19;;;;;;;14.97;5.80;;;7.40;99.90;;;;;;5032720;28;20480;-63
2022/11/22 06:41:45;;;;;;;36.33;10.17;;;7.40;99.90;;;;;;5027759;28;20875;-62
2022/11/22 06:44:12;;;;;;;18.87;6.03;;;7.50;99.90;;;;;;5032397;28;20480;-61
2022/11/22 06:46:39;;;;;;;48.17;10.97;;;7.30;99.90;;;;;;5029375;28;20495;-60
2022/11/22 06:49:05;;;;;;;31.07;7.57;;;7.40;99.90;;;;;;5034842;28;20658;-61
2022/11/22 06:51:32;;;;;;;30.97;8.97;;;7.30;99.90;;;;;;5033681;28;20499;-61
2022/11/22 06:54:00;;;;;;;31.73;7.33;;;7.20;99.90;;;;;;5036380;28;20484;-61
2022/11/22 06:56:29;;;;;;;27.00;6.67;;;7.20;99.90;;;;;;5026239;28;20485;-62
2022/11/22 06:58:56;;;;;;;17.50;5.87;;;7.20;99.90;;;;;;5031493;28;20935;-60
2022/11/22 07:01:24;;;;;;;23.97;6.33;;;7.10;99.90;;;;;;5030203;28;20483;-60
2022/11/22 07:03:54;;;;;;;40.63;7.67;;;7.10;99.90;;;;;;5032516;28;20488;-61
2022/11/22 07:06:21;;;;;;;20.13;5.00;;;7.10;99.90;;;;;;5035589;28;20480;-61
2022/11/22 07:08:48;;;;;;;58.30;11.77;;;7.00;99.90;;;;;;5036899;28;20484;-61
2022/11/22 07:11:18;;;;;;;29.53;7.00;;;7.00;99.90;;;;;;5031968;28;20534;-61
2022/11/22 07:13:45;;;;;;;28.20;6.80;;;6.90;99.90;;;;;;5031028;28;20479;-61
2022/11/22 07:16:16;;;;;;;31.77;7.80;;;6.90;99.90;;;;;;5041347;28;20480;-61
2022/11/22 07:18:42;;;;;;;32.73;8.80;;;6.80;99.90;;;;;;5033875;28;20488;-60
2022/11/22 07:21:11;;;;;;;18.23;5.57;;;6.80;99.90;;;;;;5033779;28;20484;-61
2022/11/22 07:23:39;;;;;;;20.47;5.27;;;6.80;99.90;;;;;;5040143;28;20488;-61
2022/11/22 07:26:06;;;;;;;37.43;8.57;;;6.80;99.90;;;;;;5027047;28;20480;-60
2022/11/22 07:28:34;;;;;;;24.43;6.63;;;6.70;99.90;;;;;;5027292;28;21059;-60
2022/11/22 07:31:01;;;;;;;30.37;7.70;;;6.70;99.90;;;;;;5040646;28;20490;-61
2022/11/22 07:33:29;;;;;;;31.63;6.80;;;6.70;99.90;;;;;;5023245;28;20487;-61
2022/11/22 07:35:56;;;;;;;25.53;6.60;;;6.70;99.90;;;;;;5034088;28;20493;-61
2022/11/22 07:38:22;;;;;;;24.73;7.03;;;6.80;99.90;;;;;;5029991;28;20483;-60
2022/11/22 07:40:49;;;;;;;39.37;9.40;;;6.70;99.90;;;;;;5027286;28;20812;-61
2022/11/22 07:43:16;;;;;;;25.20;5.77;;;6.70;99.90;;;;;;5037605;28;20480;-61
2022/11/22 07:45:44;;;;;;;49.67;11.60;;;6.60;99.90;;;;;;5033937;28;20820;-61
2022/11/22 07:48:13;;;;;;;25.73;7.07;;;6.70;99.90;;;;;;5025894;28;20790;-61
2022/11/22 07:50:40;;;;;;;49.00;11.33;;;6.60;99.90;;;;;;5033299;28;20476;-60
2022/11/22 07:53:07;;;;;;;27.50;8.10;;;5.30;99.90;;;;;;5035224;28;20479;-61
2022/11/22 07:55:34;;;;;;;34.70;8.87;;;6.50;99.90;;;;;;5022160;28;20491;-60
2022/11/22 07:58:01;;;;;;;23.50;5.87;;;6.60;99.90;;;;;;5034522;28;21076;-60
2022/11/22 08:00:28;;;;;;;24.47;6.57;;;6.60;99.90;;;;;;5031543;28;20480;-60
2022/11/22 08:02:57;;;;;;;47.67;6.73;;;6.60;99.90;;;;;;5028919;28;20488;-60
2022/11/22 08:05:24;;;;;;;37.83;9.40;;;6.60;99.90;;;;;;5032301;28;20471;-60
2022/11/22 08:07:53;;;;;;;28.37;7.73;;;6.60;99.90;;;;;;5034324;28;20483;-60
2022/11/22 08:10:20;;;;;;;31.67;5.00;;;6.60;99.90;;;;;;5034924;28;20468;-61
2022/11/22 08:12:47;;;;;;;41.33;10.93;;;6.60;99.90;;;;;;5049231;28;20985;-60
2022/11/22 08:15:16;;;;;;;21.80;6.30;;;6.80;99.90;;;;;;5038187;28;20825;-61
2022/11/22 08:17:43;;;;;;;63.73;10.97;;;6.80;99.90;;;;;;5030443;28;20514;-62
2022/11/22 08:20:12;;;;;;;29.03;7.10;;;6.90;99.90;;;;;;5038369;28;20491;-63
2022/11/22 08:22:39;;;;;;;52.07;11.23;;;7.00;99.90;;;;;;5043559;28;20483;-61
2022/11/22 08:25:11;;;;;;;39.93;9.97;;;7.20;99.90;;;;;;5029596;28;20511;-61
2022/11/22 08:27:38;;;;;;;45.33;9.70;;;7.20;99.90;;;;;;5031267;28;20843;-62
2022/11/22 08:30:05;;;;;;;42.53;8.13;;;7.30;99.90;;;;;;5040931;28;20630;-62
2022/11/22 08:32:32;;;;;;;84.90;24.33;;;7.60;99.90;;;;;;5029437;28;21135;-61
2022/11/22 08:34:59;;;;;;;25.17;8.30;;;7.90;99.90;;;;;;5041034;28;20934;-62
2022/11/22 08:37:27;;;;;;;29.47;7.83;;;8.30;99.90;;;;;;5045831;28;20506;-62
2022/11/22 08:39:54;;;;;;;25.20;6.43;;;8.50;99.90;;;;;;5047085;28;21007;-62
2022/11/22 08:42:21;;;;;;;27.63;7.73;;;8.70;99.90;;;;;;5057219;28;20699;-62
2022/11/22 08:44:48;;;;;;;40.70;11.47;;;8.90;99.90;;;;;;5021417;28;20984;-61
2022/11/22 08:47:14;;;;;;;19.10;5.00;;;9.10;99.90;;;;;;5036577;28;20471;-61
2022/11/22 08:49:41;;;;;;;34.63;10.63;;;9.10;99.90;;;;;;5047582;28;20472;-61
2022/11/22 08:52:08;;;;;;;14.73;5.67;;;9.20;99.90;;;;;;5047072;28;20808;-62
2022/11/22 08:54:36;;;;;;;21.37;5.90;;;9.00;99.90;;;;;;5035144;28;20487;-61
2022/11/22 08:57:02;;;;;;;25.10;8.50;;;9.00;99.90;;;;;;5036294;28;20486;-61
2022/11/22 08:59:29;;;;;;;23.33;6.10;;;8.70;99.90;;;;;;5065225;28;20839;-61
2022/11/22 09:01:56;;;;;;;32.87;7.60;;;8.40;99.90;;;;;;5049158;28;20505;-61
2022/11/22 09:04:22;;;;;;;25.20;6.67;;;8.00;99.90;;;;;;5049739;28;20476;-61
2022/11/22 09:06:49;;;;;;;38.30;9.50;;;8.00;99.90;;;;;;5047003;28;20993;-62
2022/11/22 09:09:16;;;;;;;26.30;6.07;;;8.00;99.90;;;;;;5038619;28;20701;-61
2022/11/22 09:11:44;;;;;;;32.43;7.83;;;7.90;99.90;;;;;;5050965;28;21062;-61
2022/11/22 09:14:11;;;;;;;27.60;7.00;;;7.90;99.90;;;;;;5050686;28;20482;-61
2022/11/22 09:16:38;;;;;;;33.40;7.37;;;8.10;99.90;;;;;;5033695;28;20735;-61
2022/11/22 09:19:04;;;;;;;23.53;6.60;;;8.10;99.90;;;;;;5042382;28;20956;-61
2022/11/22 09:21:31;;;;;;;5.93;3.87;;;8.10;99.90;;;;;;5039440;28;20507;-60
2022/11/22 09:23:58;;;;;;;27.70;6.77;;;8.20;99.90;;;;;;5037558;28;20479;-61
2022/11/22 09:26:25;;;;;;;30.40;6.80;;;8.30;99.90;;;;;;5032960;28;20479;-61
2022/11/22 09:28:53;;;;;;;34.93;9.07;;;8.30;99.90;;;;;;5047163;28;20492;-61
2022/11/22 09:31:21;;;;;;;19.07;6.17;;;8.40;99.90;;;;;;5040749;28;20756;-61
2022/11/22 09:33:49;;;;;;;27.70;7.10;;;8.50;99.90;;;;;;5050200;28;20486;-61
2022/11/22 09:36:17;;;;;;;31.60;6.30;;;8.50;99.90;;;;;;5042115;28;20840;-61
2022/11/22 09:38:44;;;;;;;33.53;9.23;;;8.40;99.90;;;;;;5041131;28;20755;-62
2022/11/22 09:41:23;;;;;;;21.13;6.40;;;8.60;99.90;;;;;;5035668;28;20829;-61
2022/11/22 09:44:04;;;;;;;41.77;9.20;;;8.70;99.90;;;;;;5046228;28;21034;-62
2022/11/22 09:46:44;;;;;;;22.73;6.40;;;8.70;99.90;;;;;;5038538;28;20472;-61
2022/11/22 09:49:27;;;;;;;20.60;5.37;;;8.80;99.90;;;;;;5030478;28;20486;-61
2022/11/22 09:52:03;;;;;;;24.43;6.30;;;9.00;99.90;;;;;;5028149;28;20500;-62
2022/11/22 09:54:37;;;;;;;17.30;5.53;;;8.90;99.90;;;;;;5041359;28;20581;-61
2022/11/22 09:57:09;;;;;;;19.53;6.23;;;9.10;99.90;;;;;;5042543;28;20483;-61
2022/11/22 09:59:44;;;;;;;28.83;7.47;;;8.90;99.90;;;;;;5044117;28;20482;-61
2022/11/22 10:02:15;;;;;;;29.57;7.77;;;8.90;99.90;;;;;;5049712;28;20483;-61
2022/11/22 10:04:48;;;;;;;42.90;10.80;;;9.00;99.90;;;;;;5042909;28;20762;-60
2022/11/22 10:07:19;;;;;;;23.17;7.93;;;9.20;99.90;;;;;;5040401;28;20483;-61
2022/11/22 10:09:52;;;;;;;24.50;8.63;;;9.40;99.90;;;;;;5042798;28;21023;-61
2022/11/22 10:12:24;;;;;;;22.80;6.10;;;9.40;99.90;;;;;;5047989;28;20863;-61
2022/11/22 10:15:00;;;;;;;23.83;8.80;;;9.50;99.90;;;;;;5040263;28;20487;-61
2022/11/22 10:17:41;;;;;;;21.57;5.60;;;9.50;99.90;;;;;;5038280;28;20564;-61
2022/11/22 10:20:14;;;;;;;23.00;6.60;;;9.40;99.90;;;;;;5045818;28;20483;-62
2022/11/22 10:22:41;;;;;;;20.70;5.97;;;9.50;99.90;;;;;;5050004;28;20479;-62
2022/11/22 10:25:17;;;;;;;22.00;6.83;;;9.50;99.90;;;;;;5047766;28;20486;-62
2022/11/22 10:27:46;;;;;;;37.10;10.53;;;9.50;99.90;;;;;;5044266;28;20822;-62
2022/11/22 10:30:18;;;;;;;15.77;6.13;;;9.20;99.90;;;;;;5041545;28;20489;-62
2022/11/22 10:32:57;;;;;;;24.27;9.03;;;9.20;99.90;;;;;;5043243;28;20564;-62
2022/11/22 10:35:41;;;;;;;34.27;8.00;;;9.00;99.90;;;;;;5026017;28;20491;-62
2022/11/22 10:38:31;;;;;;;18.63;7.17;;;9.10;99.90;;;;;;5022448;28;20476;-62
2022/11/22 10:41:08;;;;;;;20.97;6.03;;;9.20;99.90;;;;;;5023913;28;20472;-62
2022/11/22 10:43:42;;;;;;;24.47;8.70;;;9.30;99.90;;;;;;5036075;28;20479;-62
2022/11/22 10:46:16;;;;;;;15.63;5.50;;;;;;;;;;5028989;28;20492;-61
2022/11/22 10:48:49;;;;;;;24.97;8.20;;;9.60;99.90;;;;;;5033449;28;20484;-62
2022/11/22 10:51:24;;;;;;;13.97;5.50;;;9.60;99.90;;;;;;5009181;28;20572;-61
2022/11/22 10:54:03;;;;;;;21.30;7.90;;;9.60;99.90;;;;;;5039088;28;20480;-63
2022/11/22 10:56:34;;;;;;;19.43;6.37;;;9.50;99.90;;;;;;5036931;28;20562;-62
2022/11/22 10:59:20;;;;;;;12.60;4.43;;;9.50;99.90;;;;;;5029729;28;20515;-62
2022/11/22 11:01:57;;;;;;;27.53;9.00;;;9.60;99.90;;;;;;5029980;28;20662;-61
2022/11/22 11:04:25;;;;;;;20.80;6.80;;;9.60;99.90;;;;;;5039353;28;20566;-62
2022/11/22 11:06:56;;;;;;;20.03;6.57;;;9.50;99.90;;;;;;5023686;28;20479;-61
2022/11/22 11:09:31;;;;;;;16.23;5.77;;;9.40;99.90;;;;;;5034703;28;20880;-60
2022/11/22 11:11:59;;;;;;;18.80;5.33;;;9.40;99.90;;;;;;5032014;28;20483;-61
2022/11/22 11:14:30;;;;;;;26.20;8.23;;;9.40;99.90;;;;;;5031459;28;20641;-61
2022/11/22 11:17:00;;;;;;;20.20;6.47;;;9.30;99.90;;;;;;5028906;28;20483;-62
2022/11/22 11:19:32;;;;;;;34.27;5.17;;;9.10;99.90;;;;;;5031002;28;20484;-62
2022/11/22 11:22:11;;;;;;;11.03;4.20;;;9.00;99.90;;;;;;5026340;28;20483;-62
2022/11/22 11:24:40;;;;;;;41.20;8.10;;;9.10;99.90;;;;;;5024874;28;21075;-61
2022/11/22 11:27:09;;;;;;;12.53;5.00;;;9.00;99.90;;;;;;5027910;28;21036;-62
2022/11/22 11:29:41;;;;;;;26.00;7.17;;;9.20;99.90;;;;;;5015268;28;20483;-62
2022/11/22 11:32:14;;;;;;;21.63;5.40;;;9.40;99.90;;;;;;5038937;28;20480;-62
2022/11/22 11:34:47;;;;;;;22.67;8.10;;;9.40;99.90;;;;;;5013366;28;20480;-62
2022/11/22 11:37:23;;;;;;;22.33;7.07;;;9.70;99.90;;;;;;5014926;28;21128;-62
2022/11/22 11:39:49;;;;;;;19.93;6.53;;;9.70;99.90;;;;;;5022593;28;20472;-62
2022/11/22 11:42:28;;;;;;;13.23;4.73;;;9.90;99.90;;;;;;5030461;28;20479;-62
2022/11/22 11:45:22;;;;;;;18.00;5.77;;;9.90;99.90;;;;;;5015078;28;20483;-62
2022/11/22 11:47:53;;;;;;;20.57;6.50;;;9.90;99.90;;;;;;5034697;28;20564;-61
2022/11/22 11:50:22;;;;;;;10.00;4.57;;;9.90;99.90;;;;;;5021918;28;20679;-61
2022/11/22 11:52:51;;;;;;;21.80;8.50;;;9.90;99.90;;;;;;5025112;28;20484;-61
2022/11/22 11:55:18;;;;;;;16.63;6.27;;;12.00;99.90;;;;;;5024211;28;20498;-61
2022/11/22 11:57:45;;;;;;;33.50;10.00;;;9.70;99.90;;;;;;5041347;28;20511;-61
2022/11/22 12:00:24;;;;;;;14.23;5.67;;;9.70;99.90;;;;;;5030633;28;20493;-62
2022/11/22 12:02:58;;;;;;;26.70;7.63;;;9.60;99.90;;;;;;5028741;28;20753;-61
2022/11/22 12:05:27;;;;;;;27.67;10.20;;;9.50;99.90;;;;;;5027811;28;20491;-61
2022/11/22 12:07:54;;;;;;;14.47;5.43;;;9.50;99.90;;;;;;5022372;28;20534;-61
2022/11/22 12:10:31;;;;;;;11.10;4.50;;;9.60;99.90;;;;;;5032233;28;20570;-61
2022/11/22 12:13:02;;;;;;;19.93;5.30;;;9.50;99.90;;;;;;5026611;28;20489;-61
2022/11/22 12:15:39;;;;;;;22.80;8.40;;;12.30;99.90;;;;;;5042429;28;20484;-62
2022/11/22 12:18:27;;;;;;;12.33;4.10;;;9.40;99.90;;;;;;5028559;28;20478;-61
2022/11/22 12:21:03;;;;;;;13.57;5.33;;;9.50;99.90;;;;;;5032957;28;20501;-61
2022/11/22 12:23:36;;;;;;;17.00;3.70;;;9.40;99.90;;;;;;5036778;28;20844;-61
2022/11/22 12:26:03;;;;;;;14.83;5.83;;;9.30;99.90;;;;;;5020075;28;20477;-61
2022/11/22 12:28:31;;;;;;;17.57;7.13;;;;;;;;;;5049964;28;20939;-61
2022/11/22 12:31:04;;;;;;;12.73;5.10;;;9.30;99.90;;;;;;5032411;28;20476;-61
2022/11/22 12:33:36;;;;;;;14.80;5.40;;;9.30;99.90;;;;;;5022300;28;20784;-61
2022/11/22 12:36:06;;;;;;;19.33;5.60;;;9.30;99.90;;;;;;5025636;28;20824;-61
2022/11/22 12:38:36;;;;;;;14.23;5.43;;;9.20;99.90;;;;;;5044678;28;20482;-60
2022/11/22 12:41:07;;;;;;;10.43;5.07;;;9.20;99.90;;;;;;5036544;28;20480;-61
2022/11/22 12:43:37;;;;;;;13.83;5.17;;;9.20;99.90;;;;;;5028249;28;20483;-61
2022/11/22 12:46:08;;;;;;;7.20;3.60;;;9.00;99.90;;;;;;5034078;28;20483;-61
2022/11/22 12:48:40;;;;;;;11.43;5.67;;;9.10;99.90;;;;;;5029510;28;20468;-61
2022/11/22 12:51:15;;;;;;;8.90;3.53;;;9.10;99.90;;;;;;5012239;28;20472;-61
2022/11/22 12:53:45;;;;;;;19.30;8.90;;;9.10;99.90;;;;;;5035496;28;20500;-61
2022/11/22 12:56:22;;;;;;;11.50;4.30;;;9.10;99.90;;;;;;5020480;28;20491;-61
2022/11/22 12:58:57;;;;;;;20.10;8.30;;;9.20;99.90;;;;;;5033444;28;20583;-60
2022/11/22 13:01:28;;;;;;;10.60;4.30;;;9.20;99.90;;;;;;5029394;28;20490;-61
2022/11/22 13:04:02;;;;;;;9.87;4.37;;;9.20;99.90;;;;;;5033092;28;20495;-61
2022/11/22 13:06:34;;;;;;;18.03;5.43;;;9.00;99.90;;;;;;5044153;28;20969;-61